createdAt,value
2019-05-02T00:01:18.032Z,94879.23
2019-05-02T00:03:51.121Z,94874.30
2019-05-02T00:06:23.980Z,94874.72
2019-05-02T00:08:56.919Z,94870.81
2019-05-02T00:11:31.132Z,94868.98
2019-05-02T00:14:04.353Z,94861.91
2019-05-02T00:16:37.520Z,94865.44
2019-05-02T00:19:13.985Z,94862.86
2019-05-02T00:21:46.366Z,94869.00
2019-05-02T00:24:19.404Z,94853.33
2019-05-02T00:26:56.062Z,94854.41
2019-05-02T00:29:26.712Z,94852.95
2019-05-02T00:31:59.500Z,94854.79
2019-05-02T00:34:32.329Z,94854.50
2019-05-02T00:37:05.244Z,94849.68
2019-05-02T00:39:38.030Z,94845.62
2019-05-02T00:42:12.933Z,94839.51
2019-05-02T00:44:47.004Z,94840.43
2019-05-02T00:47:42.279Z,94843.38
2019-05-02T00:50:13.354Z,94837.57
2019-05-02T00:52:45.894Z,94837.59
2019-05-02T00:55:18.784Z,94831.81
2019-05-02T00:57:55.722Z,94833.91
2019-05-02T01:00:26.173Z,94839.56
2019-05-02T01:03:11.247Z,94841.94
2019-05-02T01:05:43.142Z,94835.20
2019-05-02T01:08:16.173Z,94837.48
2019-05-02T01:10:52.191Z,94828.95
2019-05-02T01:13:23.677Z,94830.06
2019-05-02T01:15:56.803Z,94832.14
2019-05-02T01:18:29.859Z,94831.81
2019-05-02T01:21:04.159Z,94836.64
2019-05-02T01:23:37.027Z,94833.39
2019-05-02T01:26:11.180Z,94832.27
2019-05-02T01:29:08.812Z,94833.92
2019-05-02T01:32:12.518Z,94835.23
2019-05-02T01:34:54.371Z,94835.39
2019-05-02T01:37:33.114Z,94835.70
2019-05-02T01:40:06.219Z,94836.66
2019-05-02T01:42:40.200Z,94840.70
2019-05-02T01:45:14.144Z,94839.08
2019-05-02T01:47:46.992Z,94849.23
2019-05-02T01:50:19.968Z,94841.02
2019-05-02T01:52:53.710Z,94850.22
2019-05-02T01:55:27.350Z,94838.45
2019-05-02T01:58:00.130Z,94842.81
2019-05-02T02:00:33.000Z,94838.94
2019-05-02T02:03:09.149Z,94830.23
2019-05-02T02:05:40.633Z,94827.18
2019-05-02T02:08:12.648Z,94826.85
2019-05-02T02:10:45.430Z,94814.77
2019-05-02T02:13:18.574Z,94815.89
2019-05-02T02:15:51.556Z,94821.50
2019-05-02T02:18:27.508Z,94813.09
2019-05-02T02:21:13.016Z,94817.02
2019-05-02T02:23:52.693Z,94820.75
2019-05-02T02:26:25.671Z,94822.16
2019-05-02T02:28:58.439Z,94823.80
2019-05-02T02:31:31.399Z,94818.49
2019-05-02T02:34:03.400Z,94817.20
2019-05-02T02:36:36.171Z,94818.15
2019-05-02T02:39:13.992Z,94825.55
2019-05-02T02:41:45.181Z,94821.05
2019-05-02T02:44:26.165Z,94830.08
2019-05-02T02:46:59.206Z,94834.26
2019-05-02T02:49:31.562Z,94830.56
2019-05-02T02:52:06.619Z,94829.75
2019-05-02T02:54:43.550Z,94826.05
2019-05-02T02:57:23.753Z,94830.08
2019-05-02T02:59:48.500Z,94823.46
2019-05-02T03:02:21.353Z,94821.39
2019-05-02T03:04:54.264Z,94824.58
2019-05-02T03:07:28.858Z,94826.86
2019-05-02T03:10:06.023Z,94829.11
2019-05-02T03:12:57.637Z,94826.70
2019-05-02T03:15:32.651Z,94823.80
2019-05-02T03:18:05.582Z,94818.45
2019-05-02T03:20:40.641Z,94820.06
2019-05-02T03:23:15.069Z,94818.61
2019-05-02T03:25:51.150Z,94815.72
2019-05-02T03:28:22.566Z,94819.27
2019-05-02T03:30:55.338Z,94817.50
2019-05-02T03:33:28.352Z,94816.86
2019-05-02T03:36:01.513Z,94812.97
2019-05-02T03:38:35.208Z,94808.00
2019-05-02T03:41:13.464Z,94808.97
2019-05-02T03:43:42.926Z,94808.81
2019-05-02T03:46:20.546Z,94812.52
2019-05-02T03:48:50.424Z,94806.73
2019-05-02T03:51:25.157Z,94802.70
2019-05-02T03:54:07.785Z,94795.12
2019-05-02T03:56:34.219Z,94801.75
2019-05-02T03:59:07.048Z,94797.39
2019-05-02T04:01:41.321Z,94804.94
2019-05-02T04:04:20.679Z,94798.18
2019-05-02T04:06:55.045Z,94806.88
2019-05-02T04:09:42.143Z,94799.48
2019-05-02T04:12:18.316Z,94798.85
2019-05-02T04:14:45.021Z,94802.53
2019-05-02T04:17:19.722Z,94809.62
2019-05-02T04:19:52.174Z,94808.83
2019-05-02T04:22:25.383Z,94805.27
2019-05-02T04:24:58.628Z,94800.30
2019-05-02T04:27:35.885Z,94806.41
2019-05-02T04:30:13.589Z,94805.59
2019-05-02T04:32:49.747Z,94808.81
2019-05-02T04:35:18.184Z,94808.18
2019-05-02T04:37:51.080Z,94808.35
2019-05-02T04:40:24.200Z,94810.41
2019-05-02T04:43:05.506Z,94808.79
2019-05-02T04:45:47.346Z,94811.52
2019-05-02T04:48:08.483Z,94809.70
2019-05-02T04:50:41.106Z,94806.28
2019-05-02T04:53:13.977Z,94806.41
2019-05-02T04:56:01.791Z,94808.34
2019-05-02T04:58:27.641Z,94803.83
2019-05-02T05:01:01.558Z,94810.76
2019-05-02T05:03:32.633Z,94810.63
2019-05-02T05:06:12.038Z,94807.36
2019-05-02T05:08:43.639Z,94811.19
2019-05-02T05:11:20.739Z,94808.86
2019-05-02T05:13:52.378Z,94813.09
2019-05-02T05:16:24.504Z,94817.00
2019-05-02T05:27:52.498Z,94822.19
2019-05-02T05:30:37.623Z,94825.91
2019-05-02T05:33:11.381Z,94829.52
2019-05-02T05:35:48.739Z,94829.94
2019-05-02T05:38:22.962Z,94823.42
2019-05-02T05:41:02.958Z,94821.09
2019-05-02T05:43:37.957Z,94827.88
2019-05-02T05:46:14.012Z,94824.11
2019-05-02T05:48:48.923Z,94832.00
2019-05-02T05:51:23.468Z,94834.93
2019-05-02T05:54:03.116Z,94835.45
2019-05-02T05:56:39.678Z,94833.59
2019-05-02T05:59:11.583Z,94833.56
2019-05-02T06:01:48.391Z,94825.81
2019-05-02T06:04:33.348Z,94824.24
2019-05-02T06:07:20.177Z,94825.84
2019-05-02T06:09:57.580Z,94822.28
2019-05-02T06:12:35.501Z,94820.16
2019-05-02T06:18:24.783Z,94818.38
2019-05-02T06:21:08.204Z,94810.06
2019-05-02T06:23:41.702Z,94807.80
2019-05-02T06:26:15.817Z,94802.67
2019-05-02T06:28:52.841Z,94806.94
2019-05-02T06:31:29.699Z,94810.02
2019-05-02T06:34:07.053Z,94804.55
2019-05-02T06:36:38.124Z,94802.16
2019-05-02T06:39:14.062Z,94802.47
2019-05-02T06:41:52.007Z,94800.63
2019-05-02T06:44:25.386Z,94798.16
2019-05-02T06:46:59.343Z,94796.69
2019-05-02T06:49:34.726Z,94797.87
2019-05-02T06:52:08.448Z,94792.47
2019-05-02T06:54:41.477Z,94793.86
2019-05-02T06:57:14.131Z,94791.69
2019-05-02T06:59:54.996Z,94785.86
2019-05-02T07:02:33.659Z,94788.16
2019-05-02T07:05:04.515Z,94781.20
2019-05-02T07:07:41.893Z,94782.55
2019-05-02T07:10:14.831Z,94779.13
2019-05-02T07:12:51.176Z,94776.97
2019-05-02T07:15:40.606Z,94777.13
2019-05-02T07:18:17.094Z,94770.59
2019-05-02T07:20:50.941Z,94767.58
2019-05-02T07:23:24.301Z,94763.73
2019-05-02T07:25:59.899Z,94762.64
2019-05-02T07:28:32.073Z,94764.41
2019-05-02T07:31:06.548Z,94768.15
2019-05-02T07:33:39.728Z,94760.13
2019-05-02T07:36:12.512Z,94757.87
2019-05-02T07:38:44.839Z,94763.00
2019-05-02T07:41:17.652Z,94760.17
2019-05-02T07:43:52.062Z,94753.80
2019-05-02T07:46:24.891Z,94744.02
2019-05-02T07:48:57.552Z,94753.67
2019-05-02T07:51:30.631Z,94743.75
2019-05-02T07:54:03.318Z,94750.16
2019-05-02T07:56:35.847Z,94749.34
2019-05-02T07:59:08.567Z,94746.97
2019-05-02T08:01:44.877Z,94755.48
2019-05-02T08:04:15.647Z,94751.64
2019-05-02T08:06:48.942Z,94752.48
2019-05-02T08:09:22.210Z,94750.20
2019-05-02T08:11:54.610Z,94749.55
2019-05-02T08:14:29.283Z,94749.55
2019-05-02T08:17:05.672Z,94750.37
2019-05-02T08:19:41.812Z,94750.19
2019-05-02T08:22:14.546Z,94750.95
2019-05-02T08:24:47.742Z,94759.14
2019-05-02T08:27:39.332Z,94757.34
2019-05-02T08:30:40.413Z,94755.12
2019-05-02T08:33:10.445Z,94756.81
2019-05-02T08:35:43.579Z,94761.05
2019-05-02T08:38:17.792Z,94758.86
2019-05-02T08:40:51.128Z,94765.45
2019-05-02T08:43:23.547Z,94763.78
2019-05-02T08:45:56.636Z,94762.63
2019-05-02T08:48:29.163Z,94753.36
2019-05-02T08:51:01.613Z,94759.16
2019-05-02T08:53:34.853Z,94751.73
2019-05-02T08:56:07.522Z,94745.67
2019-05-02T08:58:44.887Z,94747.89
2019-05-02T09:01:15.533Z,94739.47
2019-05-02T09:03:55.325Z,94742.00
2019-05-02T09:06:24.178Z,94743.22
2019-05-02T09:08:57.118Z,94737.78
2019-05-02T09:11:29.512Z,94738.44
2019-05-02T09:14:03.174Z,94736.21
2019-05-02T09:16:35.856Z,94737.17
2019-05-02T09:19:08.184Z,94735.84
2019-05-02T09:21:40.636Z,94737.38
2019-05-02T09:24:20.954Z,94745.44
2019-05-02T09:26:51.776Z,94737.98
2019-05-02T09:29:24.405Z,94738.84
2019-05-02T09:31:57.651Z,94737.07
2019-05-02T09:34:31.935Z,94735.69
2019-05-02T09:37:04.979Z,94730.20
2019-05-02T09:39:38.101Z,94733.05
2019-05-02T09:42:15.038Z,94739.88
2019-05-02T09:44:47.996Z,94738.47
2019-05-02T09:47:27.232Z,94739.17
2019-05-02T09:50:29.524Z,94733.38
2019-05-02T09:52:58.515Z,94722.79
2019-05-02T09:55:31.833Z,94721.31
2019-05-02T09:58:04.890Z,94717.72
2019-05-02T10:00:55.560Z,94722.03
2019-05-02T10:03:28.581Z,94721.35
2019-05-02T10:06:03.125Z,94709.12
2019-05-02T10:08:38.404Z,94714.27
2019-05-02T10:11:11.748Z,94700.99
2019-05-02T10:13:44.167Z,94695.52
2019-05-02T10:16:17.972Z,94704.07
2019-05-02T10:18:52.389Z,94697.03
2019-05-02T10:21:25.602Z,94689.88
2019-05-02T10:23:59.788Z,94690.61
2019-05-02T10:26:33.209Z,94683.97
2019-05-02T10:29:06.723Z,94683.72
2019-05-02T10:31:41.963Z,94685.93
2019-05-02T10:34:17.595Z,94675.17
2019-05-02T10:36:54.232Z,94689.55
2019-05-02T10:39:23.875Z,94687.41
2019-05-02T10:41:57.610Z,94692.42
2019-05-02T10:44:32.834Z,94682.72
2019-05-02T10:47:05.234Z,94686.09
2019-05-02T10:49:46.442Z,94685.01
2019-05-02T10:52:21.579Z,94688.06
2019-05-02T10:54:54.054Z,94695.98
2019-05-02T10:57:27.004Z,94701.09
2019-05-02T11:00:00.156Z,94697.25
2019-05-02T11:02:53.820Z,94696.33
2019-05-02T11:05:27.132Z,94701.06
2019-05-02T11:08:06.225Z,94722.84
2019-05-02T11:10:37.011Z,94733.05
2019-05-02T11:13:38.957Z,94739.56
2019-05-02T11:16:26.409Z,94747.27
2019-05-02T11:19:07.380Z,94752.58
2019-05-02T11:21:46.743Z,94756.74
2019-05-02T11:24:14.884Z,94763.97
2019-05-02T11:26:47.870Z,94769.57
2019-05-02T11:29:20.354Z,94771.74
2019-05-02T11:31:53.192Z,94779.27
2019-05-02T11:34:26.066Z,94784.49
2019-05-02T11:36:58.935Z,94783.33
2019-05-02T11:39:42.299Z,94792.59
2019-05-02T11:42:06.564Z,94792.84
2019-05-02T11:44:39.377Z,94797.77
2019-05-02T11:47:12.675Z,94795.30
2019-05-02T11:49:46.815Z,94798.89
2019-05-02T11:52:22.146Z,94807.52
2019-05-02T11:54:55.098Z,94803.90
2019-05-02T11:57:30.264Z,94805.62
2019-05-02T12:00:05.186Z,94806.84
2019-05-02T12:02:58.303Z,94801.36
2019-05-02T12:05:44.487Z,94794.92
2019-05-02T12:08:17.364Z,94783.55
2019-05-02T12:10:51.943Z,94773.88
2019-05-02T12:13:25.069Z,94761.22
2019-05-02T12:15:58.007Z,94767.38
2019-05-02T12:18:32.576Z,94766.48
2019-05-02T12:21:05.811Z,94766.58
2019-05-02T12:23:38.817Z,94754.80
2019-05-02T12:26:12.392Z,94743.69
2019-05-02T12:28:45.321Z,94737.16
2019-05-02T12:31:32.768Z,94744.07
2019-05-02T12:34:07.293Z,94737.29
2019-05-02T12:36:40.288Z,94743.45
2019-05-02T12:39:13.211Z,94741.63
2019-05-02T12:41:46.554Z,94741.23
2019-05-02T12:44:19.648Z,94739.52
2019-05-02T12:46:52.486Z,94740.77
2019-05-02T12:49:27.989Z,94744.15
2019-05-02T12:52:01.745Z,94740.67
2019-05-02T12:54:34.795Z,94737.02
2019-05-02T12:57:07.645Z,94741.64
2019-05-02T12:59:41.658Z,94732.47
2019-05-02T13:02:22.403Z,94725.80
2019-05-02T13:04:55.354Z,94729.67
2019-05-02T13:07:28.213Z,94731.03
2019-05-02T13:10:02.395Z,94723.93
2019-05-02T13:12:37.663Z,94725.50
2019-05-02T13:15:12.848Z,94717.31
2019-05-02T13:17:48.794Z,94710.86
2019-05-02T13:20:24.749Z,94707.94
2019-05-02T13:23:27.445Z,94688.61
2019-05-02T13:25:59.948Z,94689.84
2019-05-02T13:28:35.047Z,94689.19
2019-05-02T13:31:25.599Z,94677.63
2019-05-02T13:34:11.931Z,94677.58
2019-05-02T13:36:47.899Z,94670.17
2019-05-02T13:39:36.922Z,94671.07
2019-05-02T13:42:12.448Z,94664.09
2019-05-02T13:44:52.698Z,94662.16
2019-05-02T13:47:26.232Z,94654.89
2019-05-02T13:50:01.053Z,94647.44
2019-05-02T13:52:33.992Z,94651.38
2019-05-02T13:55:11.807Z,94645.44
2019-05-02T13:57:46.831Z,94640.16
2019-05-02T14:00:27.136Z,94643.80
2019-05-02T14:03:00.179Z,94645.47
2019-05-02T14:05:33.766Z,94641.99
2019-05-02T14:08:22.684Z,94640.16
2019-05-02T14:11:01.946Z,94641.63
2019-05-02T14:13:35.078Z,94636.84
2019-05-02T14:16:08.041Z,94627.48
2019-05-02T14:18:42.085Z,94627.47
2019-05-02T14:21:14.918Z,94618.26
2019-05-02T14:23:48.065Z,94620.42
2019-05-02T14:26:29.660Z,94623.11
2019-05-02T14:28:55.575Z,94619.59
2019-05-02T14:31:28.385Z,94624.86
2019-05-02T14:34:21.722Z,94622.63
2019-05-02T14:36:59.198Z,94618.66
2019-05-02T14:39:28.999Z,94615.70
2019-05-02T14:42:02.214Z,94616.30
2019-05-02T14:45:01.457Z,94623.14
2019-05-02T14:47:10.019Z,94616.16
2019-05-02T14:49:44.303Z,94612.08
2019-05-02T14:52:17.276Z,94619.73
2019-05-02T14:54:51.882Z,94617.88
2019-05-02T14:57:27.043Z,94621.83
2019-05-02T15:00:01.171Z,94615.89
2019-05-02T15:02:49.021Z,94612.17
2019-05-02T15:05:24.098Z,94618.63
2019-05-02T15:07:56.908Z,94606.25
2019-05-02T15:10:28.054Z,94594.55
2019-05-02T15:13:02.057Z,94597.59
2019-05-02T15:15:40.834Z,94591.28
2019-05-02T15:18:13.460Z,94590.70
2019-05-02T15:20:44.564Z,94586.08
2019-05-02T15:23:19.727Z,94582.59
2019-05-02T15:25:55.930Z,94579.15
2019-05-02T15:28:31.984Z,94573.27
2019-05-02T15:31:11.870Z,94572.14
2019-05-02T15:33:51.869Z,94574.95
2019-05-02T15:36:24.838Z,94580.34
2019-05-02T15:41:33.685Z,94574.36
2019-05-02T15:44:07.157Z,94571.20
2019-05-02T15:46:40.305Z,94574.08
2019-05-02T15:49:13.658Z,94577.09
2019-05-02T15:51:49.832Z,94569.80
2019-05-02T15:54:22.735Z,94570.84
2019-05-02T15:57:05.436Z,94573.02
2019-05-02T15:59:42.340Z,94566.27
2019-05-02T16:02:17.713Z,94564.42
2019-05-02T16:04:52.250Z,94562.70
2019-05-02T16:07:25.221Z,94557.73
2019-05-02T16:10:01.107Z,94552.63
2019-05-02T16:12:36.047Z,94543.55
2019-05-02T16:15:13.518Z,94550.00
2019-05-02T16:17:42.553Z,94552.92
2019-05-02T16:20:24.045Z,94551.84
2019-05-02T16:22:56.966Z,94545.72
2019-05-02T16:25:30.011Z,94542.84
2019-05-02T16:28:06.101Z,94551.51
2019-05-02T16:30:44.227Z,94565.48
2019-05-02T16:33:18.881Z,94563.59
2019-05-02T16:35:51.501Z,94561.83
2019-05-02T16:38:26.927Z,94582.84
2019-05-02T16:40:57.250Z,94655.83
2019-05-02T16:43:32.764Z,94658.11
2019-05-02T16:46:06.731Z,94666.03
2019-05-02T16:48:42.487Z,94653.44
2019-05-02T16:51:30.243Z,94665.23
2019-05-02T16:53:49.392Z,94669.05
2019-05-02T16:56:22.338Z,94659.94
2019-05-02T16:58:55.137Z,94651.31
2019-05-02T17:01:28.553Z,94657.12
2019-05-02T17:04:06.501Z,94656.52
2019-05-02T17:06:38.421Z,94662.84
2019-05-02T17:09:33.834Z,94663.03
2019-05-02T17:12:06.629Z,94669.64
2019-05-02T17:14:43.552Z,94669.70
2019-05-02T17:17:13.927Z,94672.20
2019-05-02T17:19:47.098Z,94670.42
2019-05-02T17:22:21.925Z,94674.01
2019-05-02T17:24:57.077Z,94669.81
2019-05-02T17:27:28.938Z,94671.09
2019-05-02T17:30:03.753Z,94671.20
2019-05-02T17:32:37.693Z,94674.00
2019-05-02T17:35:14.590Z,94680.20
2019-05-02T17:37:48.965Z,94673.67
2019-05-02T17:40:25.894Z,94674.29
2019-05-02T17:43:01.429Z,94678.88
2019-05-02T17:45:33.313Z,94677.00
2019-05-02T17:48:15.699Z,94663.84
2019-05-02T17:51:12.382Z,94660.04
2019-05-02T17:53:49.506Z,94663.03
2019-05-02T17:56:22.622Z,94664.96
2019-05-02T17:58:58.378Z,94663.16
2019-05-02T18:01:35.256Z,94665.76
2019-05-02T18:04:12.547Z,94666.75
2019-05-02T18:06:46.906Z,94667.27
2019-05-02T18:09:18.532Z,94670.30
2019-05-02T18:11:51.760Z,94665.87
2019-05-02T18:14:26.826Z,94672.91
2019-05-02T18:16:59.619Z,94678.50
2019-05-02T18:19:32.591Z,94673.63
2019-05-02T18:22:08.328Z,94672.63
2019-05-02T18:24:44.793Z,94675.32
2019-05-02T18:27:14.696Z,94682.15
2019-05-02T18:29:47.471Z,94681.43
2019-05-02T18:32:22.785Z,94671.94
2019-05-02T18:34:56.710Z,94674.95
2019-05-02T18:37:29.492Z,94675.23
2019-05-02T18:40:03.046Z,94674.53
2019-05-02T18:42:35.865Z,94673.63
2019-05-02T18:45:14.344Z,94681.36
2019-05-02T18:47:47.446Z,94680.75
2019-05-02T18:50:44.606Z,94680.64
2019-05-02T18:53:18.681Z,94683.04
2019-05-02T18:55:51.926Z,94675.44
2019-05-02T18:58:24.939Z,94681.44
2019-05-02T19:00:57.947Z,94678.83
2019-05-02T19:03:30.752Z,94671.23
2019-05-02T19:06:03.504Z,94679.84
2019-05-02T19:08:46.848Z,94683.86
2019-05-02T19:11:15.718Z,94680.54
2019-05-02T19:13:48.555Z,94685.95
2019-05-02T19:16:26.272Z,94684.65
2019-05-02T19:18:57.443Z,94692.65
2019-05-02T19:21:31.927Z,94683.45
2019-05-02T19:24:04.826Z,94685.25
2019-05-02T19:26:41.724Z,94687.05
2019-05-02T19:29:25.941Z,94688.66
2019-05-02T19:31:59.136Z,94690.36
2019-05-02T19:34:32.371Z,94688.45
2019-05-02T19:37:05.567Z,94687.94
2019-05-02T19:39:44.711Z,94696.87
2019-05-02T19:42:17.005Z,94695.73
2019-05-02T19:44:48.828Z,94699.67
2019-05-02T19:47:21.986Z,94690.56
2019-05-02T19:49:54.999Z,94695.45
2019-05-02T19:52:28.618Z,94697.27
2019-05-02T19:55:01.547Z,94701.47
2019-05-02T19:57:33.471Z,94701.75
2019-05-02T20:00:06.674Z,94705.77
2019-05-02T20:02:42.302Z,94705.45
2019-05-02T20:05:16.480Z,94711.06
2019-05-02T20:07:48.722Z,94716.06
2019-05-02T20:10:22.694Z,94719.67
2019-05-02T20:12:55.585Z,94711.34
2019-05-02T20:15:30.903Z,94717.85
2019-05-02T20:18:04.955Z,94715.66
2019-05-02T20:20:55.846Z,94718.58
2019-05-02T20:23:33.240Z,94711.27
2019-05-02T20:26:03.081Z,94714.16
2019-05-02T20:28:35.884Z,94716.27
2019-05-02T20:31:08.755Z,94707.08
2019-05-02T20:33:43.067Z,94701.75
2019-05-02T20:36:17.138Z,94714.77
2019-05-02T20:38:49.916Z,94708.38
2019-05-02T20:41:22.608Z,94717.56
2019-05-02T20:43:55.419Z,94712.05
2019-05-02T20:46:28.083Z,94712.77
2019-05-02T20:49:01.992Z,94713.66
2019-05-02T20:51:35.603Z,94709.77
2019-05-02T20:54:08.444Z,94702.85
2019-05-02T20:56:42.673Z,94705.16
2019-05-02T20:59:15.532Z,94701.14
2019-05-02T21:01:48.475Z,94701.75
2019-05-02T21:04:22.859Z,94701.95
2019-05-02T21:07:17.733Z,94699.27
2019-05-02T21:10:15.241Z,94703.34
2019-05-02T21:12:48.052Z,94698.14
2019-05-02T21:15:21.731Z,94695.95
2019-05-02T21:17:54.570Z,94694.04
2019-05-02T21:20:27.369Z,94698.06
2019-05-02T21:23:02.006Z,94701.06
2019-05-02T21:25:34.755Z,94703.46
2019-05-02T21:28:07.799Z,94697.36
2019-05-02T21:30:41.608Z,94693.66
2019-05-02T21:33:36.624Z,94694.06
2019-05-02T21:36:12.026Z,94696.47
2019-05-02T21:38:44.871Z,94698.86
2019-05-02T21:41:18.093Z,94702.65
2019-05-02T21:43:51.829Z,94697.77
2019-05-02T21:46:24.765Z,94697.77
2019-05-02T21:48:57.493Z,94701.14
2019-05-02T21:51:42.502Z,94699.06
2019-05-02T21:54:34.104Z,94700.77
2019-05-02T21:57:12.114Z,94711.06
2019-05-02T21:59:44.967Z,94711.67
2019-05-02T22:02:18.532Z,94707.36
2019-05-02T22:04:52.901Z,94710.28
2019-05-02T22:07:26.691Z,94704.64
2019-05-02T22:09:59.408Z,94712.25
2019-05-02T22:12:32.342Z,94709.56
2019-05-02T22:15:05.769Z,94704.23
2019-05-02T22:17:38.668Z,94709.67
2019-05-02T22:20:12.353Z,94705.77
2019-05-02T22:22:45.221Z,94704.16
2019-05-02T22:25:17.948Z,94696.34
2019-05-02T22:27:53.895Z,94706.77
2019-05-02T22:30:25.260Z,94697.88
2019-05-02T22:32:58.134Z,94703.55
2019-05-02T22:35:31.016Z,94702.24
2019-05-02T22:38:14.611Z,94707.77
2019-05-02T22:40:49.896Z,94711.27
2019-05-02T22:43:22.573Z,94711.75
2019-05-02T22:45:55.362Z,94714.64
2019-05-02T22:48:28.071Z,94722.92
2019-05-02T22:51:00.779Z,94724.55
2019-05-02T22:53:32.652Z,94719.23
2019-05-02T22:56:05.353Z,94714.03
2019-05-02T22:58:38.142Z,94715.45
2019-05-02T23:01:10.950Z,94712.13
2019-05-02T23:03:43.767Z,94715.81
2019-05-02T23:06:16.457Z,94716.14
2019-05-02T23:08:49.293Z,94711.19
2019-05-02T23:11:24.499Z,94707.28
2019-05-02T23:13:56.577Z,94711.67
2019-05-02T23:16:29.308Z,94717.06
2019-05-02T23:19:02.742Z,94716.67
2019-05-02T23:21:35.555Z,94724.86
2019-05-02T23:24:16.907Z,94728.36
2019-05-02T23:27:02.894Z,94720.97
2019-05-02T23:29:35.673Z,94731.64
2019-05-02T23:32:08.391Z,94734.35
2019-05-02T23:34:41.852Z,94720.95
2019-05-02T23:37:14.526Z,94730.25
2019-05-02T23:39:47.364Z,94722.94
2019-05-02T23:42:21.846Z,94719.03
2019-05-02T23:44:54.707Z,94719.84
2019-05-02T23:47:27.406Z,94717.53
2019-05-02T23:50:00.114Z,94721.92
2019-05-02T23:52:32.894Z,94717.81
2019-05-02T23:55:05.853Z,94726.49
2019-05-02T23:57:38.664Z,94728.80
